createdAt,value
2023-04-27T00:00:23.967Z,557.00
2023-04-27T00:01:24.013Z,554.00
2023-04-27T00:02:24.167Z,554.00
2023-04-27T00:03:24.263Z,554.00
2023-04-27T00:04:24.284Z,554.00
2023-04-27T00:05:24.302Z,553.00
2023-04-27T00:06:24.248Z,554.00
2023-04-27T00:07:24.271Z,555.00
2023-04-27T00:08:24.284Z,555.00
2023-04-27T00:09:24.378Z,555.00
2023-04-27T00:10:24.386Z,556.00
2023-04-27T00:11:24.391Z,554.00
2023-04-27T00:12:24.422Z,552.00
2023-04-27T00:13:24.499Z,551.00
2023-04-27T00:14:24.465Z,550.00
2023-04-27T00:15:24.546Z,549.00
2023-04-27T00:16:24.577Z,545.00
2023-04-27T00:17:24.618Z,545.00
2023-04-27T00:18:24.641Z,543.00
2023-04-27T00:19:24.699Z,544.00
2023-04-27T00:20:24.727Z,545.00
2023-04-27T00:21:24.743Z,547.00
2023-04-27T00:22:24.802Z,548.00
2023-04-27T00:23:24.816Z,549.00
2023-04-27T00:24:24.829Z,548.00
2023-04-27T00:25:24.926Z,546.00
2023-04-27T00:26:24.902Z,546.00
2023-04-27T00:27:25.004Z,544.00
2023-04-27T00:28:24.982Z,547.00
2023-04-27T00:29:25.082Z,543.00
2023-04-27T00:30:25.082Z,545.00
2023-04-27T00:31:25.138Z,544.00
2023-04-27T00:32:25.269Z,544.00
2023-04-27T00:33:25.205Z,546.00
2023-04-27T00:34:25.253Z,545.00
2023-04-27T00:35:25.302Z,547.00
2023-04-27T00:36:25.319Z,546.00
2023-04-27T00:37:25.352Z,543.00
2023-04-27T00:38:25.419Z,540.00
2023-04-27T00:39:25.505Z,538.00
2023-04-27T00:40:25.490Z,539.00
2023-04-27T00:41:25.531Z,536.00
2023-04-27T00:42:25.592Z,538.00
2023-04-27T00:43:25.614Z,540.00
2023-04-27T00:44:25.620Z,542.00
2023-04-27T00:45:25.715Z,540.00
2023-04-27T00:46:25.894Z,538.00
2023-04-27T00:47:25.773Z,539.00
2023-04-27T00:48:25.846Z,540.00
2023-04-27T00:49:25.857Z,541.00
2023-04-27T00:50:25.856Z,542.00
2023-04-27T00:51:25.893Z,543.00
2023-04-27T00:52:26.164Z,546.00
2023-04-27T00:53:25.996Z,545.00
2023-04-27T00:54:26.004Z,544.00
2023-04-27T00:55:27.120Z,545.00
2023-04-27T00:56:26.108Z,545.00
2023-04-27T00:57:26.149Z,542.00
2023-04-27T00:58:26.176Z,543.00
2023-04-27T00:59:26.146Z,540.00
2023-04-27T01:00:26.218Z,544.00
2023-04-27T01:01:26.281Z,546.00
2023-04-27T01:02:26.327Z,544.00
2023-04-27T01:03:26.535Z,543.00
2023-04-27T01:04:26.503Z,543.00
2023-04-27T01:05:26.445Z,543.00
2023-04-27T01:06:26.431Z,542.00
2023-04-27T01:07:26.663Z,539.00
2023-04-27T01:08:26.570Z,536.00
2023-04-27T01:09:26.567Z,533.00
2023-04-27T01:10:26.586Z,532.00
2023-04-27T01:11:26.636Z,531.00
2023-04-27T01:12:26.675Z,530.00
2023-04-27T01:13:26.746Z,533.00
2023-04-27T01:14:26.735Z,532.00
2023-04-27T01:15:26.779Z,531.00
2023-04-27T01:16:26.837Z,530.00
2023-04-27T01:17:26.871Z,530.00
2023-04-27T01:18:26.881Z,531.00
2023-04-27T01:19:26.931Z,531.00
2023-04-27T01:20:26.970Z,532.00
2023-04-27T01:21:27.018Z,532.00
2023-04-27T01:22:27.041Z,533.00
2023-04-27T01:23:27.085Z,534.00
2023-04-27T01:24:27.125Z,535.00
2023-04-27T01:25:27.196Z,535.00
2023-04-27T01:26:27.209Z,536.00
2023-04-27T01:27:27.283Z,534.00
2023-04-27T01:28:27.311Z,535.00
2023-04-27T01:29:27.321Z,535.00
2023-04-27T01:30:27.411Z,535.00
2023-04-27T01:31:27.486Z,533.00
2023-04-27T01:32:27.489Z,532.00
2023-04-27T01:33:27.502Z,532.00
2023-04-27T01:34:27.514Z,530.00
2023-04-27T01:35:28.356Z,528.00
2023-04-27T01:36:27.630Z,528.00
2023-04-27T01:37:27.669Z,527.00
2023-04-27T01:38:27.696Z,527.00
2023-04-27T01:39:27.763Z,528.00
2023-04-27T01:40:27.805Z,529.00
2023-04-27T01:41:27.826Z,529.00
2023-04-27T01:42:27.880Z,527.00
2023-04-27T01:43:27.905Z,528.00
2023-04-27T01:44:28.049Z,526.00
2023-04-27T01:45:28.054Z,526.00
2023-04-27T01:46:28.108Z,525.00
2023-04-27T01:47:28.153Z,526.00
2023-04-27T01:48:28.132Z,530.00
2023-04-27T01:49:28.186Z,529.00
2023-04-27T01:50:28.669Z,528.00
2023-04-27T01:51:28.252Z,528.00
2023-04-27T01:52:28.324Z,526.00
2023-04-27T01:53:28.371Z,527.00
2023-04-27T01:54:28.851Z,526.00
2023-04-27T01:55:28.475Z,526.00
2023-04-27T01:56:28.491Z,530.00
2023-04-27T01:57:28.589Z,529.00
2023-04-27T01:58:28.581Z,527.00
2023-04-27T01:59:28.656Z,529.00
2023-04-27T02:00:28.698Z,528.00
2023-04-27T02:01:28.729Z,526.00
2023-04-27T02:02:28.856Z,524.00
2023-04-27T02:03:28.913Z,523.00
2023-04-27T02:04:28.971Z,523.00
2023-04-27T02:05:28.894Z,523.00
2023-04-27T02:06:28.916Z,521.00
2023-04-27T02:07:28.982Z,519.00
2023-04-27T02:08:29.023Z,520.00
2023-04-27T02:09:29.048Z,520.00
2023-04-27T02:10:29.115Z,521.00
2023-04-27T02:11:29.189Z,520.00
2023-04-27T02:12:29.190Z,521.00
2023-04-27T02:13:29.223Z,521.00
2023-04-27T02:14:29.265Z,518.00
2023-04-27T02:15:29.360Z,517.00
2023-04-27T02:16:29.416Z,516.00
2023-04-27T02:17:29.447Z,514.00
2023-04-27T02:18:29.446Z,513.00
2023-04-27T02:19:29.544Z,511.00
2023-04-27T02:20:29.688Z,511.00
2023-04-27T02:21:29.600Z,511.00
2023-04-27T02:22:29.622Z,512.00
2023-04-27T02:23:29.697Z,512.00
2023-04-27T02:24:29.784Z,515.00
2023-04-27T02:25:29.793Z,513.00
2023-04-27T02:26:29.824Z,514.00
2023-04-27T02:27:29.864Z,513.00
2023-04-27T02:28:29.901Z,513.00
2023-04-27T02:29:29.964Z,514.00
2023-04-27T02:30:30.183Z,513.00
2023-04-27T02:31:30.094Z,514.00
2023-04-27T02:32:30.125Z,514.00
2023-04-27T02:33:30.157Z,514.00
2023-04-27T02:34:30.179Z,515.00
2023-04-27T02:35:30.240Z,514.00
2023-04-27T02:36:30.288Z,512.00
2023-04-27T02:37:30.317Z,514.00
2023-04-27T02:38:30.362Z,512.00
2023-04-27T02:39:30.388Z,512.00
2023-04-27T02:40:30.491Z,513.00
2023-04-27T02:41:30.517Z,511.00
2023-04-27T02:42:30.537Z,511.00
2023-04-27T02:43:30.598Z,514.00
2023-04-27T02:44:30.678Z,517.00
2023-04-27T02:45:30.710Z,519.00
2023-04-27T02:46:30.757Z,516.00
2023-04-27T02:47:30.770Z,515.00
2023-04-27T02:48:30.882Z,514.00
2023-04-27T02:49:30.891Z,513.00
2023-04-27T02:50:30.905Z,514.00
2023-04-27T02:51:30.952Z,514.00
2023-04-27T02:52:30.996Z,515.00
2023-04-27T02:53:31.055Z,516.00
2023-04-27T02:54:31.130Z,516.00
2023-04-27T02:55:31.138Z,515.00
2023-04-27T02:56:31.186Z,515.00
2023-04-27T02:57:31.230Z,514.00
2023-04-27T02:58:31.302Z,513.00
2023-04-27T02:59:31.333Z,513.00
2023-04-27T03:00:31.388Z,513.00
2023-04-27T03:01:31.458Z,509.00
2023-04-27T03:02:31.605Z,507.00
2023-04-27T03:03:31.693Z,507.00
2023-04-27T03:04:31.741Z,507.00
2023-04-27T03:05:31.641Z,507.00
2023-04-27T03:06:31.703Z,510.00
2023-04-27T03:07:31.747Z,510.00
2023-04-27T03:08:31.824Z,510.00
2023-04-27T03:09:31.830Z,510.00
2023-04-27T03:10:31.949Z,510.00
2023-04-27T03:11:31.933Z,509.00
2023-04-27T03:12:32.005Z,509.00
2023-04-27T03:13:32.051Z,511.00
2023-04-27T03:14:32.112Z,512.00
2023-04-27T03:15:32.137Z,514.00
2023-04-27T03:16:32.237Z,513.00
2023-04-27T03:17:32.255Z,513.00
2023-04-27T03:18:32.287Z,510.00
2023-04-27T03:19:32.397Z,510.00
2023-04-27T03:20:32.425Z,508.00
2023-04-27T03:21:32.459Z,508.00
2023-04-27T03:22:32.518Z,510.00
2023-04-27T03:23:32.555Z,510.00
2023-04-27T03:24:32.583Z,513.00
2023-04-27T03:25:32.647Z,512.00
2023-04-27T03:26:32.698Z,512.00
2023-04-27T03:27:32.740Z,516.00
2023-04-27T03:28:32.796Z,515.00
2023-04-27T03:29:32.856Z,515.00
2023-04-27T03:30:32.951Z,515.00
2023-04-27T03:31:32.950Z,516.00
2023-04-27T03:32:33.051Z,517.00
2023-04-27T03:33:33.031Z,517.00
2023-04-27T03:34:33.098Z,516.00
2023-04-27T03:35:33.130Z,514.00
2023-04-27T03:36:33.188Z,512.00
2023-04-27T03:37:33.259Z,512.00
2023-04-27T03:38:33.281Z,513.00
2023-04-27T03:39:33.382Z,512.00
2023-04-27T03:40:33.483Z,511.00
2023-04-27T03:41:33.453Z,511.00
2023-04-27T03:42:33.508Z,511.00
2023-04-27T03:43:33.534Z,511.00
2023-04-27T03:44:33.587Z,509.00
2023-04-27T03:45:35.299Z,511.00
2023-04-27T03:46:33.739Z,511.00
2023-04-27T03:47:33.771Z,511.00
2023-04-27T03:48:33.798Z,511.00
2023-04-27T03:49:33.866Z,510.00
2023-04-27T03:50:33.949Z,510.00
2023-04-27T03:51:33.943Z,509.00
2023-04-27T03:52:34.118Z,508.00
2023-04-27T03:53:34.054Z,507.00
2023-04-27T03:54:34.129Z,505.00
2023-04-27T03:55:34.190Z,504.00
2023-04-27T03:56:34.233Z,504.00
2023-04-27T03:57:34.300Z,504.00
2023-04-27T03:58:34.370Z,502.00
2023-04-27T03:59:34.409Z,504.00
2023-04-27T04:00:34.472Z,507.00
2023-04-27T04:01:34.536Z,506.00
2023-04-27T04:02:34.724Z,507.00
2023-04-27T04:03:34.746Z,507.00
2023-04-27T04:04:34.791Z,507.00
2023-04-27T04:05:34.778Z,508.00
2023-04-27T04:06:34.802Z,509.00
2023-04-27T04:07:34.876Z,507.00
2023-04-27T04:08:34.923Z,507.00
2023-04-27T04:09:34.993Z,506.00
2023-04-27T04:10:35.053Z,504.00
2023-04-27T04:11:35.095Z,505.00
2023-04-27T04:12:35.141Z,504.00
2023-04-27T04:13:35.217Z,502.00
2023-04-27T04:14:35.279Z,502.00
2023-04-27T04:15:35.344Z,502.00
2023-04-27T04:16:35.382Z,501.00
2023-04-27T04:17:35.437Z,501.00
2023-04-27T04:18:35.463Z,502.00
2023-04-27T04:19:35.524Z,503.00
2023-04-27T04:20:35.582Z,504.00
2023-04-27T04:21:35.661Z,503.00
2023-04-27T04:22:35.679Z,505.00
2023-04-27T04:23:35.765Z,504.00
2023-04-27T04:24:35.805Z,502.00
2023-04-27T04:25:35.862Z,503.00
2023-04-27T04:26:35.954Z,503.00
2023-04-27T04:27:35.984Z,503.00
2023-04-27T04:28:36.050Z,501.00
2023-04-27T04:29:36.125Z,500.00
2023-04-27T04:30:36.164Z,499.00
2023-04-27T04:31:36.229Z,498.00
2023-04-27T04:32:36.327Z,498.00
2023-04-27T04:33:36.344Z,500.00
2023-04-27T04:34:36.376Z,501.00
2023-04-27T04:35:36.442Z,504.00
2023-04-27T04:36:36.531Z,505.00
2023-04-27T04:37:36.717Z,504.00
2023-04-27T04:38:36.673Z,502.00
2023-04-27T04:39:36.714Z,500.00
2023-04-27T04:40:36.758Z,500.00
2023-04-27T04:41:36.813Z,501.00
2023-04-27T04:42:36.886Z,501.00
2023-04-27T04:43:36.942Z,501.00
2023-04-27T04:44:36.999Z,499.00
2023-04-27T04:45:37.072Z,498.00
2023-04-27T04:46:37.112Z,498.00
2023-04-27T04:47:37.200Z,499.00
2023-04-27T04:48:37.216Z,500.00
2023-04-27T04:49:37.305Z,499.00
2023-04-27T04:50:37.370Z,499.00
2023-04-27T04:51:37.422Z,501.00
2023-04-27T04:52:37.469Z,500.00
2023-04-27T04:53:37.523Z,500.00
2023-04-27T04:54:37.634Z,499.00
2023-04-27T04:55:37.678Z,499.00
2023-04-27T04:56:37.691Z,498.00
2023-04-27T04:57:37.759Z,497.00
2023-04-27T04:58:37.841Z,495.00
2023-04-27T04:59:37.910Z,493.00
2023-04-27T05:00:37.934Z,493.00
2023-04-27T05:01:38.053Z,492.00
2023-04-27T05:02:38.247Z,491.00
2023-04-27T05:03:38.242Z,490.00
2023-04-27T05:04:38.306Z,492.00
2023-04-27T05:05:38.305Z,494.00
2023-04-27T05:06:38.300Z,494.00
2023-04-27T05:07:38.403Z,494.00
2023-04-27T05:08:38.409Z,494.00
2023-04-27T05:09:38.478Z,494.00
2023-04-27T05:10:38.569Z,496.00
2023-04-27T05:11:38.639Z,495.00
2023-04-27T05:12:38.696Z,493.00
2023-04-27T05:13:38.710Z,496.00
2023-04-27T05:14:38.783Z,496.00
2023-04-27T05:15:38.819Z,495.00
2023-04-27T05:16:39.117Z,495.00
2023-04-27T05:17:38.985Z,493.00
2023-04-27T05:18:39.019Z,494.00
2023-04-27T05:19:39.069Z,493.00
2023-04-27T05:20:39.304Z,492.00
2023-04-27T05:21:39.166Z,492.00
2023-04-27T05:22:39.238Z,490.00
2023-04-27T05:23:40.132Z,489.00
2023-04-27T05:24:39.397Z,489.00
2023-04-27T05:25:39.417Z,490.00
2023-04-27T05:26:39.511Z,489.00
2023-04-27T05:27:39.538Z,489.00
2023-04-27T05:28:39.684Z,489.00
2023-04-27T05:29:39.691Z,490.00
2023-04-27T05:30:39.772Z,490.00
2023-04-27T05:31:39.847Z,489.00
2023-04-27T05:32:39.875Z,494.00
2023-04-27T05:33:39.866Z,506.00
2023-04-27T05:34:39.918Z,512.00
2023-04-27T05:35:39.956Z,511.00
2023-04-27T05:36:40.008Z,568.00
2023-04-27T05:37:40.093Z,595.00
2023-04-27T05:38:40.233Z,625.00
2023-04-27T05:39:40.076Z,678.00
2023-04-27T05:40:40.087Z,735.00
2023-04-27T05:41:40.102Z,783.00
2023-04-27T05:42:40.230Z,826.00
2023-04-27T05:43:40.133Z,842.00
2023-04-27T05:44:40.159Z,867.00
2023-04-27T05:45:40.237Z,928.00
2023-04-27T05:46:40.266Z,955.00
2023-04-27T05:47:40.371Z,963.00
2023-04-27T05:48:40.338Z,971.00
2023-04-27T05:49:40.451Z,983.00
2023-04-27T05:50:40.510Z,1011.00
2023-04-27T05:51:40.563Z,1046.00
2023-04-27T05:52:41.237Z,1074.00
2023-04-27T05:53:40.628Z,1082.00
2023-04-27T05:54:40.766Z,1115.00
2023-04-27T05:55:40.856Z,1125.00
2023-04-27T05:56:40.755Z,1129.00
2023-04-27T05:57:40.867Z,1134.00
2023-04-27T05:58:40.884Z,1152.00
2023-04-27T05:59:40.922Z,1163.00
2023-04-27T06:00:40.937Z,1176.00
2023-04-27T06:01:40.983Z,1185.00
2023-04-27T06:02:41.212Z,1207.00
2023-04-27T06:03:41.303Z,1224.00
2023-04-27T06:04:41.126Z,1236.00
2023-04-27T06:05:41.168Z,1256.00
2023-04-27T06:06:41.135Z,1273.00
2023-04-27T06:07:41.199Z,1291.00
2023-04-27T06:08:41.177Z,1326.00
2023-04-27T06:09:41.204Z,1348.00
2023-04-27T06:10:41.255Z,1368.00
2023-04-27T06:11:41.268Z,1386.00
2023-04-27T06:12:41.303Z,1386.00
2023-04-27T06:13:41.395Z,1389.00
2023-04-27T06:14:42.267Z,1389.00
2023-04-27T06:15:41.324Z,1399.00
2023-04-27T06:16:41.332Z,1419.00
2023-04-27T06:17:41.388Z,1429.00
2023-04-27T06:18:41.344Z,1441.00
2023-04-27T06:19:41.345Z,1457.00
2023-04-27T06:20:41.360Z,1470.00
2023-04-27T06:21:41.369Z,1484.00
2023-04-27T06:22:41.389Z,1516.00
2023-04-27T06:23:41.368Z,1522.00
2023-04-27T06:24:41.377Z,1534.00
2023-04-27T06:25:41.810Z,1545.00
2023-04-27T06:26:42.327Z,1564.00
2023-04-27T06:27:41.377Z,1572.00
2023-04-27T06:28:41.361Z,1584.00
2023-04-27T06:29:41.372Z,1598.00
2023-04-27T06:30:41.387Z,1616.00
2023-04-27T06:31:41.399Z,1638.00
2023-04-27T06:32:41.396Z,1644.00
2023-04-27T06:33:41.465Z,1653.00
2023-04-27T06:34:41.427Z,1681.00
2023-04-27T06:35:41.395Z,1712.00
2023-04-27T06:36:41.371Z,1711.00
2023-04-27T06:37:41.422Z,1747.00
2023-04-27T06:38:41.441Z,1794.00
2023-04-27T06:39:41.417Z,1799.00
2023-04-27T06:40:41.410Z,1782.00
2023-04-27T06:41:41.443Z,1767.00
2023-04-27T06:42:41.758Z,1720.00
2023-04-27T06:43:41.425Z,1700.00
2023-04-27T06:44:41.424Z,1687.00
2023-04-27T06:45:41.451Z,1678.00
2023-04-27T06:46:41.447Z,1673.00
2023-04-27T06:47:41.446Z,1673.00
2023-04-27T06:48:41.440Z,1671.00
2023-04-27T06:49:41.430Z,1664.00
2023-04-27T06:50:42.024Z,1658.00
2023-04-27T06:51:41.476Z,1658.00
2023-04-27T06:52:41.537Z,1651.00
2023-04-27T06:53:41.411Z,1651.00
2023-04-27T06:54:41.432Z,1645.00
2023-04-27T06:55:43.560Z,1641.00
2023-04-27T06:56:41.402Z,1634.00
2023-04-27T06:57:41.468Z,1632.00
2023-04-27T06:58:41.391Z,1628.00
2023-04-27T06:59:41.408Z,1629.00
2023-04-27T07:00:41.384Z,1625.00
2023-04-27T07:01:41.416Z,1622.00
2023-04-27T07:02:41.429Z,1618.00
2023-04-27T07:03:42.954Z,1615.00
2023-04-27T07:04:41.430Z,1609.00
2023-04-27T07:05:41.337Z,1602.00
2023-04-27T07:06:41.358Z,1599.00
2023-04-27T07:07:41.354Z,1596.00
2023-04-27T07:08:41.323Z,1595.00
2023-04-27T07:09:41.325Z,1593.00
2023-04-27T07:10:41.308Z,1589.00
2023-04-27T07:11:41.322Z,1585.00
2023-04-27T07:12:41.296Z,1584.00
2023-04-27T07:13:41.296Z,1580.00
2023-04-27T07:14:41.259Z,1575.00
2023-04-27T07:15:41.319Z,1571.00
2023-04-27T07:16:41.327Z,1568.00
2023-04-27T07:17:41.303Z,1561.00
2023-04-27T07:18:43.281Z,1558.00
2023-04-27T07:19:41.262Z,1556.00
2023-04-27T07:20:41.760Z,1557.00
2023-04-27T07:21:41.323Z,1554.00
2023-04-27T07:22:41.273Z,1553.00
2023-04-27T07:23:41.258Z,1548.00
2023-04-27T07:24:41.204Z,1545.00
2023-04-27T07:25:41.281Z,1545.00
2023-04-27T07:26:41.182Z,1544.00
2023-04-27T07:27:41.226Z,1544.00
2023-04-27T07:28:41.203Z,1543.00
2023-04-27T07:29:41.195Z,1539.00
2023-04-27T07:30:41.255Z,1536.00
2023-04-27T07:31:41.265Z,1545.00
2023-04-27T07:32:41.279Z,1686.00
2023-04-27T07:33:41.233Z,1709.00
2023-04-27T07:34:52.812Z,1696.00
2023-04-27T07:35:42.311Z,1675.00
2023-04-27T07:36:41.258Z,1664.00
2023-04-27T07:37:41.234Z,1655.00
2023-04-27T07:38:41.304Z,1645.00
2023-04-27T07:39:41.227Z,1639.00
2023-04-27T07:40:43.738Z,1633.00
2023-04-27T07:41:41.358Z,1628.00
2023-04-27T07:42:41.228Z,1625.00
2023-04-27T07:43:41.194Z,1620.00
2023-04-27T07:44:41.200Z,1617.00
2023-04-27T07:45:41.343Z,1614.00
2023-04-27T07:46:41.303Z,1610.00
2023-04-27T07:47:41.204Z,1612.00
2023-04-27T07:48:41.343Z,1609.00
2023-04-27T07:49:41.156Z,1609.00
2023-04-27T07:50:41.170Z,1605.00
2023-04-27T07:51:41.283Z,1600.00
2023-04-27T07:52:41.166Z,1598.00
2023-04-27T07:53:41.124Z,1597.00
2023-04-27T07:54:41.128Z,1597.00
2023-04-27T07:55:41.155Z,1597.00
2023-04-27T07:56:41.137Z,1593.00
2023-04-27T07:57:41.081Z,1589.00
2023-04-27T07:58:41.149Z,1585.00
2023-04-27T07:59:41.079Z,1585.00
2023-04-27T08:00:41.100Z,1579.00
2023-04-27T08:01:41.096Z,1575.00
2023-04-27T08:02:41.251Z,1571.00
2023-04-27T08:03:41.458Z,1564.00
2023-04-27T08:05:41.417Z,1564.00
2023-04-27T08:06:41.350Z,1562.00
2023-04-27T08:07:44.464Z,1563.00
2023-04-27T08:08:41.026Z,1564.00
2023-04-27T08:09:41.064Z,1560.00
2023-04-27T08:10:41.012Z,1556.00
2023-04-27T08:11:40.998Z,1555.00
2023-04-27T08:12:41.023Z,1552.00
2023-04-27T08:13:40.977Z,1550.00
2023-04-27T08:14:40.956Z,1546.00
2023-04-27T08:15:40.958Z,1542.00
2023-04-27T08:16:41.051Z,1541.00
2023-04-27T08:17:41.072Z,1540.00
2023-04-27T08:18:40.948Z,1544.00
2023-04-27T08:19:40.978Z,1543.00
2023-04-27T08:20:40.917Z,1539.00
2023-04-27T08:21:40.941Z,1535.00
2023-04-27T08:22:40.916Z,1533.00
2023-04-27T08:23:40.931Z,1533.00
2023-04-27T08:24:40.914Z,1530.00
2023-04-27T08:25:40.936Z,1546.00
2023-04-27T08:26:40.905Z,1554.00
2023-04-27T08:27:40.896Z,1553.00
2023-04-27T08:28:40.870Z,1556.00
2023-04-27T08:29:40.861Z,1562.00
2023-04-27T08:30:40.873Z,1565.00
2023-04-27T08:31:41.343Z,1566.00
2023-04-27T08:32:40.899Z,1565.00
2023-04-27T08:33:40.857Z,1563.00
2023-04-27T08:34:40.870Z,1560.00
2023-04-27T08:35:40.826Z,1559.00
2023-04-27T08:36:40.932Z,1560.00
2023-04-27T08:37:40.833Z,1560.00
2023-04-27T08:38:40.817Z,1553.00
2023-04-27T08:39:40.802Z,1550.00
2023-04-27T08:40:40.825Z,1548.00
2023-04-27T08:41:40.780Z,1545.00
2023-04-27T08:42:40.817Z,1544.00
2023-04-27T08:43:40.773Z,1547.00
2023-04-27T08:44:40.752Z,1562.00
2023-04-27T08:45:40.751Z,1643.00
2023-04-27T08:46:40.819Z,1661.00
2023-04-27T08:47:43.899Z,1719.00
2023-04-27T08:48:40.725Z,1747.00
2023-04-27T08:49:40.730Z,1768.00
2023-04-27T08:50:40.737Z,1806.00
2023-04-27T08:51:40.721Z,1849.00
2023-04-27T08:52:40.714Z,1884.00
2023-04-27T08:53:40.707Z,1901.00
2023-04-27T08:54:40.689Z,1925.00
2023-04-27T08:55:40.690Z,1954.00
2023-04-27T08:56:40.806Z,1976.00
2023-04-27T08:57:40.693Z,2009.00
2023-04-27T08:58:40.654Z,2046.00
2023-04-27T08:59:40.670Z,2062.00
2023-04-27T09:00:40.662Z,2087.00
2023-04-27T09:01:40.666Z,2105.00
2023-04-27T09:02:40.746Z,2140.00
2023-04-27T09:03:40.868Z,2161.00
2023-04-27T09:04:40.806Z,2198.00
2023-04-27T09:05:46.593Z,2219.00
2023-04-27T09:06:41.624Z,2250.00
2023-04-27T09:07:40.610Z,2276.00
2023-04-27T09:08:40.578Z,2284.00
2023-04-27T09:09:40.607Z,2305.00
2023-04-27T09:10:40.580Z,2341.00
2023-04-27T09:11:40.566Z,2362.00
2023-04-27T09:12:40.552Z,2379.00
2023-04-27T09:13:40.549Z,2405.00
2023-04-27T09:14:40.562Z,2483.00
2023-04-27T09:15:40.547Z,2496.00
2023-04-27T09:16:40.629Z,2517.00
2023-04-27T09:17:40.575Z,2535.00
2023-04-27T09:18:40.543Z,2555.00
2023-04-27T09:19:40.500Z,2573.00
2023-04-27T09:20:40.488Z,2637.00
2023-04-27T09:21:40.501Z,2659.00
2023-04-27T09:22:40.505Z,2680.00
2023-04-27T09:23:40.517Z,2698.00
2023-04-27T09:24:40.530Z,2727.00
2023-04-27T09:25:40.458Z,2768.00
2023-04-27T09:26:40.448Z,2786.00
2023-04-27T09:27:40.518Z,2841.00
2023-04-27T09:28:41.362Z,2847.00
2023-04-27T09:29:40.601Z,2867.00
2023-04-27T09:30:40.653Z,2954.00
2023-04-27T09:31:41.441Z,3016.00
2023-04-27T09:32:40.819Z,3040.00
2023-04-27T09:33:41.393Z,3064.00
2023-04-27T09:34:40.894Z,3093.00
2023-04-27T09:35:40.945Z,3108.00
2023-04-27T09:36:41.017Z,3096.00
2023-04-27T09:37:41.063Z,2854.00
2023-04-27T09:38:41.129Z,2540.00
2023-04-27T09:39:41.226Z,2283.00
2023-04-27T09:40:41.196Z,2022.00
2023-04-27T09:41:41.308Z,1899.00
2023-04-27T09:42:41.230Z,1671.00
2023-04-27T09:43:41.308Z,1563.00
2023-04-27T09:44:41.249Z,1527.00
2023-04-27T09:45:41.343Z,1342.00
2023-04-27T09:46:41.312Z,1313.00
2023-04-27T09:47:41.389Z,1296.00
2023-04-27T09:48:41.490Z,1242.00
2023-04-27T09:49:41.520Z,1239.00
2023-04-27T09:50:41.471Z,1139.00
2023-04-27T09:51:41.515Z,1132.00
2023-04-27T09:52:41.604Z,1134.00
2023-04-27T09:53:41.633Z,1032.00
2023-04-27T09:54:41.781Z,1028.00
2023-04-27T09:55:41.752Z,954.00
2023-04-27T09:56:41.816Z,960.00
2023-04-27T09:57:41.896Z,951.00
2023-04-27T09:58:41.961Z,965.00
2023-04-27T09:59:42.028Z,1023.00
2023-04-27T10:00:42.085Z,1026.00
2023-04-27T10:01:42.369Z,1034.00
2023-04-27T10:02:52.530Z,1040.00
2023-04-27T10:03:43.248Z,1046.00
2023-04-27T10:04:42.407Z,1056.00
2023-04-27T10:05:42.163Z,1064.00
2023-04-27T10:06:42.148Z,1066.00
2023-04-27T10:07:42.155Z,1077.00
2023-04-27T10:08:42.184Z,1085.00
2023-04-27T10:09:42.164Z,1098.00
2023-04-27T10:10:42.143Z,1103.00
2023-04-27T10:11:42.194Z,1112.00
2023-04-27T10:12:42.151Z,1112.00
2023-04-27T10:13:42.119Z,1111.00
2023-04-27T10:14:42.096Z,1110.00
2023-04-27T10:15:42.104Z,1111.00
2023-04-27T10:16:42.154Z,1115.00
2023-04-27T10:17:42.129Z,1114.00
2023-04-27T10:18:42.106Z,1090.00
2023-04-27T10:19:42.235Z,1072.00
2023-04-27T10:20:42.163Z,1050.00
2023-04-27T10:21:42.171Z,1049.00
2023-04-27T10:22:42.218Z,1053.00
2023-04-27T10:23:42.223Z,1056.00
2023-04-27T10:24:42.249Z,1061.00
2023-04-27T10:25:42.262Z,1060.00
2023-04-27T10:26:42.312Z,1053.00
2023-04-27T10:27:42.896Z,1056.00
2023-04-27T10:28:42.411Z,1077.00
2023-04-27T10:29:42.873Z,1120.00
2023-04-27T10:30:42.440Z,1120.00
2023-04-27T10:31:42.480Z,1060.00
2023-04-27T10:32:42.489Z,1068.00
2023-04-27T10:33:42.488Z,1087.00
2023-04-27T10:34:42.908Z,1103.00
2023-04-27T10:35:42.527Z,1197.00
2023-04-27T10:36:42.619Z,1202.00
2023-04-27T10:37:42.649Z,1205.00
2023-04-27T10:38:42.625Z,1216.00
2023-04-27T10:39:47.571Z,1217.00
2023-04-27T10:40:43.632Z,1210.00
2023-04-27T10:41:42.853Z,1252.00
2023-04-27T10:42:42.643Z,1264.00
2023-04-27T10:43:42.720Z,1280.00
2023-04-27T10:44:42.633Z,1325.00
2023-04-27T10:45:42.593Z,1328.00
2023-04-27T10:46:42.679Z,1330.00
2023-04-27T10:47:42.687Z,1318.00
2023-04-27T10:48:42.566Z,1315.00
2023-04-27T10:49:42.637Z,1322.00
2023-04-27T10:50:42.650Z,1329.00
2023-04-27T10:51:42.583Z,1333.00
2023-04-27T10:52:42.657Z,1331.00
2023-04-27T10:53:42.583Z,1331.00
2023-04-27T10:54:42.559Z,1332.00
2023-04-27T10:55:42.544Z,1329.00
2023-04-27T10:56:42.676Z,1330.00
2023-04-27T10:57:42.574Z,1327.00
2023-04-27T10:58:48.808Z,1331.00
2023-04-27T10:59:43.500Z,1328.00
2023-04-27T11:00:42.484Z,1332.00
2023-04-27T11:01:42.963Z,1336.00
2023-04-27T11:02:42.533Z,1338.00
2023-04-27T11:03:42.515Z,1343.00
2023-04-27T11:04:42.568Z,1332.00
2023-04-27T11:05:42.527Z,1336.00
2023-04-27T11:06:42.627Z,1352.00
2023-04-27T11:07:42.549Z,1376.00
2023-04-27T11:08:42.485Z,1376.00
2023-04-27T11:09:42.460Z,1376.00
2023-04-27T11:10:42.443Z,1373.00
2023-04-27T11:11:42.472Z,1375.00
2023-04-27T11:12:42.399Z,1384.00
2023-04-27T11:13:42.451Z,1390.00
2023-04-27T11:14:42.459Z,1387.00
2023-04-27T11:15:42.603Z,1386.00
2023-04-27T11:16:42.910Z,1384.00
2023-04-27T11:17:42.513Z,1384.00
2023-04-27T11:18:42.437Z,1391.00
2023-04-27T11:19:42.369Z,1391.00
2023-04-27T11:20:42.406Z,1392.00
2023-04-27T11:21:42.409Z,1381.00
2023-04-27T11:22:42.379Z,1359.00
2023-04-27T11:23:42.376Z,1347.00
2023-04-27T11:24:42.376Z,1343.00
2023-04-27T11:25:42.329Z,1338.00
2023-04-27T11:26:42.364Z,1338.00
2023-04-27T11:27:42.315Z,1340.00
2023-04-27T11:28:42.342Z,1339.00
2023-04-27T11:29:42.402Z,1339.00
2023-04-27T11:30:42.325Z,1336.00
2023-04-27T11:31:42.419Z,1332.00
2023-04-27T11:32:42.368Z,1333.00
2023-04-27T11:33:42.409Z,1336.00
2023-04-27T11:34:42.342Z,1336.00
2023-04-27T11:35:42.367Z,1333.00
2023-04-27T11:36:42.391Z,1330.00
2023-04-27T11:37:42.411Z,1326.00
2023-04-27T11:38:42.456Z,1326.00
2023-04-27T11:39:42.434Z,1325.00
2023-04-27T11:40:42.468Z,1323.00
2023-04-27T11:41:42.479Z,1322.00
2023-04-27T11:42:42.503Z,1321.00
2023-04-27T11:43:42.509Z,1320.00
2023-04-27T11:44:42.513Z,1317.00
2023-04-27T11:45:42.625Z,1314.00
2023-04-27T11:46:42.600Z,1315.00
2023-04-27T11:47:42.663Z,1317.00
2023-04-27T11:48:42.600Z,1316.00
2023-04-27T11:49:42.611Z,1317.00
2023-04-27T11:50:42.668Z,1319.00
2023-04-27T11:51:42.651Z,1316.00
2023-04-27T11:52:42.704Z,1316.00
2023-04-27T11:53:42.784Z,1315.00
2023-04-27T11:54:42.719Z,1310.00
2023-04-27T11:55:42.742Z,1312.00
2023-04-27T11:56:42.795Z,1312.00
2023-04-27T11:57:42.790Z,1308.00
2023-04-27T11:58:44.383Z,1303.00
2023-04-27T11:59:42.837Z,1305.00
2023-04-27T12:00:42.808Z,1303.00
2023-04-27T12:01:42.800Z,1303.00
2023-04-27T12:02:43.264Z,1303.00
2023-04-27T12:03:42.925Z,1299.00
2023-04-27T12:04:43.177Z,1295.00
2023-04-27T12:05:42.769Z,1292.00
2023-04-27T12:06:42.730Z,1295.00
2023-04-27T12:07:42.767Z,1294.00
2023-04-27T12:08:42.723Z,1290.00
2023-04-27T12:09:42.800Z,1286.00
2023-04-27T12:10:42.709Z,1282.00
2023-04-27T12:11:42.736Z,1280.00
2023-04-27T12:12:42.689Z,1282.00
2023-04-27T12:13:42.687Z,1284.00
2023-04-27T12:14:42.718Z,1282.00
2023-04-27T12:15:42.696Z,1279.00
2023-04-27T12:16:42.717Z,1279.00
2023-04-27T12:17:42.693Z,1278.00